sensor_id;sensor_type;location;lat;lon;timestamp;pressure;altitude;pressure_sealevel;temperature;humidity
82474;BME280;72350;53.232;6.556;2023-09-30T00:00:38;102222.94;;;13.26;92.37
82474;BME280;72350;53.232;6.556;2023-09-30T00:03:06;102209.38;;;13.23;92.10
82474;BME280;72350;53.232;6.556;2023-09-30T00:05:35;102224.28;;;13.22;92.26
82474;BME280;72350;53.232;6.556;2023-09-30T00:08:03;102225.69;;;13.26;92.45
82474;BME280;72350;53.232;6.556;2023-09-30T00:10:31;102225.56;;;13.36;91.91
82474;BME280;72350;53.232;6.556;2023-09-30T00:12:59;102227.56;;;13.25;92.06
82474;BME280;72350;53.232;6.556;2023-09-30T00:15:27;102218.88;;;13.20;92.41
82474;BME280;72350;53.232;6.556;2023-09-30T00:17:55;102224.28;;;13.22;93.03
82474;BME280;72350;53.232;6.556;2023-09-30T00:20:23;102221.34;;;13.23;92.68
82474;BME280;72350;53.232;6.556;2023-09-30T00:22:52;102218.75;;;13.22;93.27
82474;BME280;72350;53.232;6.556;2023-09-30T00:25:20;102225.84;;;13.24;93.02
82474;BME280;72350;53.232;6.556;2023-09-30T00:27:48;102226.25;;;13.29;93.04
82474;BME280;72350;53.232;6.556;2023-09-30T00:30:16;102220.00;;;13.27;92.60
82474;BME280;72350;53.232;6.556;2023-09-30T00:32:44;102212.50;;;13.20;92.20
82474;BME280;72350;53.232;6.556;2023-09-30T00:35:11;102216.31;;;13.19;92.38
82474;BME280;72350;53.232;6.556;2023-09-30T00:37:40;102225.44;;;13.11;92.24
82474;BME280;72350;53.232;6.556;2023-09-30T00:40:10;102220.56;;;13.05;92.50
82474;BME280;72350;53.232;6.556;2023-09-30T00:42:40;102221.09;;;13.08;92.61
82474;BME280;72350;53.232;6.556;2023-09-30T00:45:09;102212.06;;;13.06;92.37
82474;BME280;72350;53.232;6.556;2023-09-30T00:47:37;102212.78;;;13.08;92.56
82474;BME280;72350;53.232;6.556;2023-09-30T00:50:06;102219.38;;;13.07;92.51
82474;BME280;72350;53.232;6.556;2023-09-30T00:52:38;102228.69;;;13.06;92.49
82474;BME280;72350;53.232;6.556;2023-09-30T00:55:06;102231.25;;;13.00;92.49
82474;BME280;72350;53.232;6.556;2023-09-30T00:57:36;102238.16;;;13.04;92.73
82474;BME280;72350;53.232;6.556;2023-09-30T01:00:06;102233.50;;;13.04;92.77
82474;BME280;72350;53.232;6.556;2023-09-30T01:02:38;102224.34;;;13.04;92.64
82474;BME280;72350;53.232;6.556;2023-09-30T01:05:07;102231.41;;;12.98;92.77
82474;BME280;72350;53.232;6.556;2023-09-30T01:07:36;102236.06;;;12.98;93.22
82474;BME280;72350;53.232;6.556;2023-09-30T01:10:04;102239.91;;;13.05;93.11
82474;BME280;72350;53.232;6.556;2023-09-30T01:12:32;102254.75;;;13.04;93.24
82474;BME280;72350;53.232;6.556;2023-09-30T01:15:04;102259.44;;;13.03;93.37
82474;BME280;72350;53.232;6.556;2023-09-30T01:17:34;102257.47;;;12.96;93.05
82474;BME280;72350;53.232;6.556;2023-09-30T01:20:03;102259.19;;;12.97;93.49
82474;BME280;72350;53.232;6.556;2023-09-30T01:22:34;102265.38;;;12.90;94.29
82474;BME280;72350;53.232;6.556;2023-09-30T01:25:03;102256.56;;;12.87;94.45
82474;BME280;72350;53.232;6.556;2023-09-30T01:27:32;102262.88;;;12.97;94.20
82474;BME280;72350;53.232;6.556;2023-09-30T01:29:59;102259.53;;;12.94;93.90
82474;BME280;72350;53.232;6.556;2023-09-30T01:32:27;102254.31;;;12.90;94.07
82474;BME280;72350;53.232;6.556;2023-09-30T01:34:55;102264.06;;;12.95;94.04
82474;BME280;72350;53.232;6.556;2023-09-30T01:37:26;102259.53;;;12.94;94.08
82474;BME280;72350;53.232;6.556;2023-09-30T01:39:55;102262.16;;;12.95;94.64
82474;BME280;72350;53.232;6.556;2023-09-30T01:42:23;102260.63;;;13.01;94.55
82474;BME280;72350;53.232;6.556;2023-09-30T01:44:52;102254.56;;;12.97;94.64
82474;BME280;72350;53.232;6.556;2023-09-30T01:47:21;102250.22;;;12.95;94.16
82474;BME280;72350;53.232;6.556;2023-09-30T01:49:49;102246.47;;;13.04;94.31
82474;BME280;72350;53.232;6.556;2023-09-30T01:52:16;102252.31;;;13.01;94.32
82474;BME280;72350;53.232;6.556;2023-09-30T01:54:44;102240.78;;;13.05;94.16
82474;BME280;72350;53.232;6.556;2023-09-30T01:57:15;102242.13;;;13.01;94.28
82474;BME280;72350;53.232;6.556;2023-09-30T01:59:43;102248.53;;;13.02;94.44
82474;BME280;72350;53.232;6.556;2023-09-30T02:02:11;102256.34;;;13.06;94.61
82474;BME280;72350;53.232;6.556;2023-09-30T02:04:39;102260.16;;;13.05;94.20
82474;BME280;72350;53.232;6.556;2023-09-30T02:07:07;102267.06;;;13.09;93.88
82474;BME280;72350;53.232;6.556;2023-09-30T02:09:34;102256.19;;;13.08;94.12
82474;BME280;72350;53.232;6.556;2023-09-30T02:12:02;102252.00;;;13.04;94.16
82474;BME280;72350;53.232;6.556;2023-09-30T02:14:32;102256.81;;;13.02;94.17
82474;BME280;72350;53.232;6.556;2023-09-30T02:17:00;102259.28;;;13.05;94.07
82474;BME280;72350;53.232;6.556;2023-09-30T02:19:28;102258.78;;;13.09;93.67
82474;BME280;72350;53.232;6.556;2023-09-30T02:21:58;102261.72;;;13.08;93.49
82474;BME280;72350;53.232;6.556;2023-09-30T02:24:26;102261.34;;;13.03;93.71
82474;BME280;72350;53.232;6.556;2023-09-30T02:26:54;102256.28;;;12.98;93.84
82474;BME280;72350;53.232;6.556;2023-09-30T02:29:22;102266.81;;;12.95;94.55
82474;BME280;72350;53.232;6.556;2023-09-30T02:31:51;102269.25;;;12.98;94.19
82474;BME280;72350;53.232;6.556;2023-09-30T02:34:21;102266.81;;;12.95;93.79
82474;BME280;72350;53.232;6.556;2023-09-30T02:36:50;102271.69;;;13.01;94.22
82474;BME280;72350;53.232;6.556;2023-09-30T02:39:18;102262.69;;;12.99;94.35
82474;BME280;72350;53.232;6.556;2023-09-30T02:41:46;102270.59;;;12.94;94.47
82474;BME280;72350;53.232;6.556;2023-09-30T02:44:16;102261.34;;;13.03;93.99
82474;BME280;72350;53.232;6.556;2023-09-30T02:46:44;102257.47;;;12.96;94.00
82474;BME280;72350;53.232;6.556;2023-09-30T02:49:14;102257.47;;;12.96;94.58
82474;BME280;72350;53.232;6.556;2023-09-30T02:51:42;102251.88;;;12.87;94.47
82474;BME280;72350;53.232;6.556;2023-09-30T02:54:11;102255.84;;;12.85;95.02
82474;BME280;72350;53.232;6.556;2023-09-30T02:56:42;102253.47;;;12.90;95.00
82474;BME280;72350;53.232;6.556;2023-09-30T02:59:13;102254.72;;;12.96;94.66
82474;BME280;72350;53.232;6.556;2023-09-30T03:01:41;102253.63;;;12.88;94.68
82474;BME280;72350;53.232;6.556;2023-09-30T03:04:09;102259.53;;;12.94;94.85
82474;BME280;72350;53.232;6.556;2023-09-30T03:06:40;102259.47;;;12.85;95.21
82474;BME280;72350;53.232;6.556;2023-09-30T03:09:09;102261.44;;;12.93;95.01
82474;BME280;72350;53.232;6.556;2023-09-30T03:11:39;102251.72;;;12.89;95.21
82474;BME280;72350;53.232;6.556;2023-09-30T03:14:09;102252.91;;;12.86;95.26
82474;BME280;72350;53.232;6.556;2023-09-30T03:16:38;102255.38;;;12.89;94.85
82474;BME280;72350;53.232;6.556;2023-09-30T03:19:08;102256.84;;;12.84;94.90
82474;BME280;72350;53.232;6.556;2023-09-30T03:21:38;102259.56;;;12.76;95.02
82474;BME280;72350;53.232;6.556;2023-09-30T03:24:08;102267.22;;;12.82;95.04
82474;BME280;72350;53.232;6.556;2023-09-30T03:26:36;102267.38;;;12.80;95.46
82474;BME280;72350;53.232;6.556;2023-09-30T03:29:08;102262.72;;;12.81;95.17
82474;BME280;72350;53.232;6.556;2023-09-30T03:31:36;102259.94;;;12.81;94.95
82474;BME280;72350;53.232;6.556;2023-09-30T03:34:04;102259.19;;;12.71;94.93
82474;BME280;72350;53.232;6.556;2023-09-30T03:36:32;102260.75;;;12.73;95.27
82474;BME280;72350;53.232;6.556;2023-09-30T03:39:00;102267.84;;;12.76;95.42
82474;BME280;72350;53.232;6.556;2023-09-30T03:41:34;102266.59;;;12.70;95.03
82474;BME280;72350;53.232;6.556;2023-09-30T03:44:03;102266.78;;;12.68;95.65
82474;BME280;72350;53.232;6.556;2023-09-30T03:46:31;102262.28;;;12.67;95.45
82474;BME280;72350;53.232;6.556;2023-09-30T03:48:59;102266.88;;;12.59;95.71
82474;BME280;72350;53.232;6.556;2023-09-30T03:51:27;102263.78;;;12.62;96.31
82474;BME280;72350;53.232;6.556;2023-09-30T03:53:55;102268.44;;;12.61;96.13
82474;BME280;72350;53.232;6.556;2023-09-30T03:56:23;102258.41;;;12.60;95.80
82474;BME280;72350;53.232;6.556;2023-09-30T03:58:53;102260.88;;;12.63;96.42
82474;BME280;72350;53.232;6.556;2023-09-30T04:01:21;102267.66;;;12.69;96.38
82474;BME280;72350;53.232;6.556;2023-09-30T04:03:50;102260.53;;;12.66;96.03
82474;BME280;72350;53.232;6.556;2023-09-30T04:06:21;102261.25;;;12.68;95.95
82474;BME280;72350;53.232;6.556;2023-09-30T04:08:49;102264.66;;;12.62;96.19
82474;BME280;72350;53.232;6.556;2023-09-30T04:11:17;102259.69;;;12.66;96.12
82474;BME280;72350;53.232;6.556;2023-09-30T04:13:47;102274.91;;;12.70;96.23
82474;BME280;72350;53.232;6.556;2023-09-30T04:16:17;102259.28;;;12.61;95.96
82474;BME280;72350;53.232;6.556;2023-09-30T04:18:46;102259.28;;;12.61;96.53
82474;BME280;72350;53.232;6.556;2023-09-30T04:21:16;102258.72;;;12.57;96.76
82474;BME280;72350;53.232;6.556;2023-09-30T04:23:44;102263.06;;;12.60;96.88
82474;BME280;72350;53.232;6.556;2023-09-30T04:26:12;102261.97;;;12.53;97.12
82474;BME280;72350;53.232;6.556;2023-09-30T04:28:41;102254.25;;;12.56;97.28
82474;BME280;72350;53.232;6.556;2023-09-30T04:31:10;102253.06;;;12.59;97.68
82474;BME280;72350;53.232;6.556;2023-09-30T04:33:41;102251.38;;;12.66;96.93
82474;BME280;72350;53.232;6.556;2023-09-30T04:36:09;102260.63;;;12.57;96.90
82474;BME280;72350;53.232;6.556;2023-09-30T04:38:37;102268.91;;;12.57;97.40
82474;BME280;72350;53.232;6.556;2023-09-30T04:41:05;102269.31;;;12.62;97.42
82474;BME280;72350;53.232;6.556;2023-09-30T04:43:34;102277.75;;;12.60;97.24
82474;BME280;72350;53.232;6.556;2023-09-30T04:46:02;102273.78;;;12.63;97.21
82474;BME280;72350;53.232;6.556;2023-09-30T04:48:31;102281.41;;;12.61;97.39
82474;BME280;72350;53.232;6.556;2023-09-30T04:51:00;102284.06;;;12.71;97.23
82474;BME280;72350;53.232;6.556;2023-09-30T04:53:31;102287.47;;;12.64;97.45
82474;BME280;72350;53.232;6.556;2023-09-30T04:56:00;102292.69;;;12.67;97.83
82474;BME280;72350;53.232;6.556;2023-09-30T04:58:28;102293.88;;;12.65;97.33
82474;BME280;72350;53.232;6.556;2023-09-30T05:00:57;102298.06;;;12.69;97.56
82474;BME280;72350;53.232;6.556;2023-09-30T05:03:25;102296.16;;;12.70;97.20
82474;BME280;72350;53.232;6.556;2023-09-30T05:05:53;102309.84;;;12.71;96.92
82474;BME280;72350;53.232;6.556;2023-09-30T05:08:24;102311.03;;;12.68;96.95
82474;BME280;72350;53.232;6.556;2023-09-30T05:10:52;102313.78;;;12.68;96.97
82474;BME280;72350;53.232;6.556;2023-09-30T05:13:22;102322.22;;;12.67;97.10
82474;BME280;72350;53.232;6.556;2023-09-30T05:15:51;102323.09;;;12.67;97.22
82474;BME280;72350;53.232;6.556;2023-09-30T05:18:19;102324.13;;;12.66;97.08
82474;BME280;72350;53.232;6.556;2023-09-30T05:20:47;102322.88;;;12.61;97.08
82474;BME280;72350;53.232;6.556;2023-09-30T05:23:16;102326.09;;;12.56;97.10
82474;BME280;72350;53.232;6.556;2023-09-30T05:25:46;102328.00;;;12.56;97.26
82474;BME280;72350;53.232;6.556;2023-09-30T05:28:14;102329.56;;;12.58;97.27
82474;BME280;72350;53.232;6.556;2023-09-30T05:30:42;102318.28;;;12.70;97.03
82474;BME280;72350;53.232;6.556;2023-09-30T05:33:10;102333.53;;;12.56;97.52
82474;BME280;72350;53.232;6.556;2023-09-30T05:35:41;102328.00;;;12.56;97.48
82474;BME280;72350;53.232;6.556;2023-09-30T05:38:09;102333.22;;;12.59;97.76
82474;BME280;72350;53.232;6.556;2023-09-30T05:40:39;102338.41;;;12.62;97.45
82474;BME280;72350;53.232;6.556;2023-09-30T05:43:09;102328.22;;;12.62;97.47
82474;BME280;72350;53.232;6.556;2023-09-30T05:45:38;102325.06;;;12.57;97.40
82474;BME280;72350;53.232;6.556;2023-09-30T05:48:15;102321.19;;;12.68;96.93
82474;BME280;72350;53.232;6.556;2023-09-30T05:50:43;102326.63;;;12.60;96.75
82474;BME280;72350;53.232;6.556;2023-09-30T05:53:11;102332.63;;;12.55;97.18
82474;BME280;72350;53.232;6.556;2023-09-30T05:55:40;102338.34;;;12.54;96.91
82474;BME280;72350;53.232;6.556;2023-09-30T05:58:13;102339.34;;;12.53;97.57
82474;BME280;72350;53.232;6.556;2023-09-30T06:00:41;102336.97;;;12.58;97.75
82474;BME280;72350;53.232;6.556;2023-09-30T06:03:09;102340.06;;;12.55;97.77
82474;BME280;72350;53.232;6.556;2023-09-30T06:05:39;102341.19;;;12.62;97.63
82474;BME280;72350;53.232;6.556;2023-09-30T06:08:08;102347.41;;;12.64;97.09
82474;BME280;72350;53.232;6.556;2023-09-30T06:10:37;102339.13;;;12.64;97.38
82474;BME280;72350;53.232;6.556;2023-09-30T06:13:10;102348.53;;;12.71;97.18
82474;BME280;72350;53.232;6.556;2023-09-30T06:15:39;102348.53;;;12.71;96.85
82474;BME280;72350;53.232;6.556;2023-09-30T06:18:08;102350.25;;;12.72;97.03
82474;BME280;72350;53.232;6.556;2023-09-30T06:20:38;102346.84;;;12.78;97.15
82474;BME280;72350;53.232;6.556;2023-09-30T06:23:07;102348.03;;;12.76;97.08
82474;BME280;72350;53.232;6.556;2023-09-30T06:25:37;102342.81;;;12.90;97.23
82474;BME280;72350;53.232;6.556;2023-09-30T06:28:06;102353.41;;;12.95;96.23
82474;BME280;72350;53.232;6.556;2023-09-30T06:30:35;102348.59;;;12.97;96.40
82474;BME280;72350;53.232;6.556;2023-09-30T06:33:04;102359.34;;;13.00;96.06
82474;BME280;72350;53.232;6.556;2023-09-30T06:35:33;102361.25;;;13.00;95.82
82474;BME280;72350;53.232;6.556;2023-09-30T06:38:04;102362.38;;;13.15;95.73
82474;BME280;72350;53.232;6.556;2023-09-30T06:40:33;102361.75;;;13.21;95.47
82474;BME280;72350;53.232;6.556;2023-09-30T06:43:06;102358.91;;;13.31;94.88
82474;BME280;72350;53.232;6.556;2023-09-30T06:45:35;102365.41;;;13.48;94.45
82474;BME280;72350;53.232;6.556;2023-09-30T06:48:08;102370.91;;;13.40;93.92
82474;BME280;72350;53.232;6.556;2023-09-30T06:50:40;102368.91;;;13.50;94.17
82474;BME280;72350;53.232;6.556;2023-09-30T06:53:07;102371.19;;;13.54;93.46
82474;BME280;72350;53.232;6.556;2023-09-30T06:55:37;102379.34;;;13.64;93.89
82474;BME280;72350;53.232;6.556;2023-09-30T06:58:05;102385.28;;;13.69;93.68
82474;BME280;72350;53.232;6.556;2023-09-30T07:00:34;102392.63;;;13.79;93.59
82474;BME280;72350;53.232;6.556;2023-09-30T07:03:04;102398.56;;;13.92;93.35
82474;BME280;72350;53.232;6.556;2023-09-30T07:05:32;102396.84;;;13.91;92.48
82474;BME280;72350;53.232;6.556;2023-09-30T07:07:59;102386.66;;;13.99;92.03
82474;BME280;72350;53.232;6.556;2023-09-30T07:10:27;102391.38;;;14.07;92.38
82474;BME280;72350;53.232;6.556;2023-09-30T07:12:55;102401.47;;;14.16;91.62
82474;BME280;72350;53.232;6.556;2023-09-30T07:15:23;102391.09;;;14.27;91.83
82474;BME280;72350;53.232;6.556;2023-09-30T07:17:51;102394.81;;;14.43;92.02
82474;BME280;72350;53.232;6.556;2023-09-30T07:20:20;102410.13;;;14.56;91.25
82474;BME280;72350;53.232;6.556;2023-09-30T07:22:49;102410.47;;;14.53;90.37
82474;BME280;72350;53.232;6.556;2023-09-30T07:25:32;102412.41;;;14.69;90.83
82474;BME280;72350;53.232;6.556;2023-09-30T07:28:01;102415.88;;;14.71;89.94
82474;BME280;72350;53.232;6.556;2023-09-30T07:30:29;102414.84;;;14.80;89.83
82474;BME280;72350;53.232;6.556;2023-09-30T07:32:57;102420.41;;;14.88;89.46
82474;BME280;72350;53.232;6.556;2023-09-30T07:35:27;102422.84;;;14.91;89.31
82474;BME280;72350;53.232;6.556;2023-09-30T07:37:54;102428.44;;;15.07;88.72
82474;BME280;72350;53.232;6.556;2023-09-30T07:40:22;102430.50;;;15.14;87.52
82474;BME280;72350;53.232;6.556;2023-09-30T07:42:50;102424.09;;;15.13;86.99
82474;BME280;72350;53.232;6.556;2023-09-30T07:45:18;102429.31;;;15.08;87.54
82474;BME280;72350;53.232;6.556;2023-09-30T07:47:47;102433.63;;;15.27;87.85
82474;BME280;72350;53.232;6.556;2023-09-30T07:50:16;102441.28;;;15.33;87.60
82474;BME280;72350;53.232;6.556;2023-09-30T07:52:45;102434.88;;;15.49;87.74
82474;BME280;72350;53.232;6.556;2023-09-30T07:55:13;102434.84;;;15.65;87.00
82474;BME280;72350;53.232;6.556;2023-09-30T07:57:42;102430.34;;;15.72;85.47
82474;BME280;72350;53.232;6.556;2023-09-30T08:00:11;102428.59;;;15.88;85.97
82474;BME280;72350;53.232;6.556;2023-09-30T08:02:42;102431.84;;;16.00;85.56
82474;BME280;72350;53.232;6.556;2023-09-30T08:05:11;102434.44;;;16.09;84.58
82474;BME280;72350;53.232;6.556;2023-09-30T08:07:38;102429.91;;;16.16;84.58
82474;BME280;72350;53.232;6.556;2023-09-30T08:10:08;102440.09;;;16.32;84.33
82474;BME280;72350;53.232;6.556;2023-09-30T08:12:40;102434.31;;;16.42;84.00
82474;BME280;72350;53.232;6.556;2023-09-30T08:15:09;102443.81;;;16.56;82.89
82474;BME280;72350;53.232;6.556;2023-09-30T08:17:39;102428.47;;;16.60;82.27
82474;BME280;72350;53.232;6.556;2023-09-30T08:20:07;102427.56;;;16.68;83.02
82474;BME280;72350;53.232;6.556;2023-09-30T08:22:36;102435.34;;;16.72;82.51
82474;BME280;72350;53.232;6.556;2023-09-30T08:25:05;102436.03;;;16.74;82.48
82474;BME280;72350;53.232;6.556;2023-09-30T08:27:36;102436.22;;;16.81;82.59
82474;BME280;72350;53.232;6.556;2023-09-30T08:30:05;102432.47;;;16.97;82.41
82474;BME280;72350;53.232;6.556;2023-09-30T08:32:34;102433.56;;;17.11;82.63
82474;BME280;72350;53.232;6.556;2023-09-30T08:35:02;102432.97;;;17.23;81.42
82474;BME280;72350;53.232;6.556;2023-09-30T08:37:30;102436.66;;;17.39;81.53
82474;BME280;72350;53.232;6.556;2023-09-30T08:39:59;102437.28;;;17.49;80.45
82474;BME280;72350;53.232;6.556;2023-09-30T08:42:27;102428.91;;;17.49;80.00
82474;BME280;72350;53.232;6.556;2023-09-30T08:45:01;102430.38;;;17.60;79.84
82474;BME280;72350;53.232;6.556;2023-09-30T08:47:29;102437.97;;;17.66;79.25
82474;BME280;72350;53.232;6.556;2023-09-30T08:49:59;102435.78;;;17.76;79.04
82474;BME280;72350;53.232;6.556;2023-09-30T08:52:33;102446.88;;;17.84;79.41
82474;BME280;72350;53.232;6.556;2023-09-30T08:55:06;102453.94;;;17.95;79.42
82474;BME280;72350;53.232;6.556;2023-09-30T08:57:37;102446.41;;;18.10;79.14
82474;BME280;72350;53.232;6.556;2023-09-30T09:00:09;102442.88;;;18.17;78.25
82474;BME280;72350;53.232;6.556;2023-09-30T09:02:39;102435.66;;;18.22;77.56
82474;BME280;72350;53.232;6.556;2023-09-30T09:05:07;102436.91;;;18.34;76.75
82474;BME280;72350;53.232;6.556;2023-09-30T09:07:38;102447.00;;;18.36;75.84
82474;BME280;72350;53.232;6.556;2023-09-30T09:10:08;102440.56;;;18.35;75.64
82474;BME280;72350;53.232;6.556;2023-09-30T09:12:37;102440.28;;;18.30;76.12
82474;BME280;72350;53.232;6.556;2023-09-30T09:15:20;102446.59;;;18.39;77.36
82474;BME280;72350;53.232;6.556;2023-09-30T09:17:49;102444.78;;;18.31;76.36
82474;BME280;72350;53.232;6.556;2023-09-30T09:20:19;102443.81;;;18.39;76.91
82474;BME280;72350;53.232;6.556;2023-09-30T09:22:48;102438.22;;;18.39;77.44
82474;BME280;72350;53.232;6.556;2023-09-30T09:25:19;102440.63;;;18.42;76.70
82474;BME280;72350;53.232;6.556;2023-09-30T09:27:49;102449.09;;;18.48;76.46
82474;BME280;72350;53.232;6.556;2023-09-30T09:30:20;102448.44;;;18.46;76.76
82474;BME280;72350;53.232;6.556;2023-09-30T09:32:54;102450.47;;;18.52;76.48
82474;BME280;72350;53.232;6.556;2023-09-30T09:35:21;102458.31;;;18.64;77.43
82474;BME280;72350;53.232;6.556;2023-09-30T09:37:58;102470.22;;;18.72;77.07
82474;BME280;72350;53.232;6.556;2023-09-30T09:40:28;102467.56;;;18.79;76.43
82474;BME280;72350;53.232;6.556;2023-09-30T09:42:57;102469.69;;;18.77;75.64
82474;BME280;72350;53.232;6.556;2023-09-30T09:45:28;102467.56;;;18.79;75.21
82474;BME280;72350;53.232;6.556;2023-09-30T09:47:59;102463.22;;;18.91;75.25
82474;BME280;72350;53.232;6.556;2023-09-30T09:50:27;102461.34;;;18.98;74.83
82474;BME280;72350;53.232;6.556;2023-09-30T09:52:56;102468.72;;;19.06;75.20
82474;BME280;72350;53.232;6.556;2023-09-30T09:55:26;102473.13;;;18.94;74.83
82474;BME280;72350;53.232;6.556;2023-09-30T09:57:56;102476.22;;;18.84;74.48
82474;BME280;72350;53.232;6.556;2023-09-30T10:00:26;102473.41;;;18.69;74.55
82474;BME280;72350;53.232;6.556;2023-09-30T10:02:55;102475.84;;;18.58;75.29
82474;BME280;72350;53.232;6.556;2023-09-30T10:05:23;102482.88;;;18.39;75.00
82474;BME280;72350;53.232;6.556;2023-09-30T10:07:54;102480.00;;;18.32;75.33
82474;BME280;72350;53.232;6.556;2023-09-30T10:10:24;102484.69;;;18.46;74.91
82474;BME280;72350;53.232;6.556;2023-09-30T10:12:52;102485.28;;;18.56;74.77
82474;BME280;72350;53.232;6.556;2023-09-30T10:15:38;102491.25;;;18.53;73.89
82474;BME280;72350;53.232;6.556;2023-09-30T10:18:09;102491.53;;;18.44;73.78
82474;BME280;72350;53.232;6.556;2023-09-30T10:20:43;102491.47;;;18.37;75.25
82474;BME280;72350;53.232;6.556;2023-09-30T10:23:26;102478.25;;;18.46;74.22
82474;BME280;72350;53.232;6.556;2023-09-30T10:26:14;102485.19;;;18.50;73.98
82474;BME280;72350;53.232;6.556;2023-09-30T10:28:45;102485.00;;;18.51;73.85
82474;BME280;72350;53.232;6.556;2023-09-30T10:31:17;102478.66;;;18.58;73.80
82474;BME280;72350;53.232;6.556;2023-09-30T10:34:22;102475.94;;;18.64;73.47
82474;BME280;72350;53.232;6.556;2023-09-30T10:36:50;102475.28;;;18.47;72.68
82474;BME280;72350;53.232;6.556;2023-09-30T10:39:54;102474.22;;;18.33;73.15
82474;BME280;72350;53.232;6.556;2023-09-30T10:42:48;102483.06;;;18.52;73.40
82474;BME280;72350;53.232;6.556;2023-09-30T10:45:43;102486.34;;;18.70;72.21
82474;BME280;72350;53.232;6.556;2023-09-30T10:48:33;102488.22;;;18.99;71.95
82474;BME280;72350;53.232;6.556;2023-09-30T10:51:17;102487.56;;;19.19;71.98
82474;BME280;72350;53.232;6.556;2023-09-30T10:53:49;102484.72;;;19.34;70.88
82474;BME280;72350;53.232;6.556;2023-09-30T10:56:19;102490.84;;;19.44;70.47
82474;BME280;72350;53.232;6.556;2023-09-30T10:58:48;102492.69;;;19.58;69.71
82474;BME280;72350;53.232;6.556;2023-09-30T11:01:17;102482.31;;;19.74;69.57
82474;BME280;72350;53.232;6.556;2023-09-30T11:03:46;102477.19;;;19.56;68.33
82474;BME280;72350;53.232;6.556;2023-09-30T11:06:19;102470.44;;;19.43;71.44
82474;BME280;72350;53.232;6.556;2023-09-30T11:08:51;102476.53;;;19.32;69.95
82474;BME280;72350;53.232;6.556;2023-09-30T11:11:31;102468.47;;;19.01;70.58
82474;BME280;72350;53.232;6.556;2023-09-30T11:13:59;102464.19;;;18.69;71.41
82474;BME280;72350;53.232;6.556;2023-09-30T11:16:27;102469.50;;;18.79;70.34
82474;BME280;72350;53.232;6.556;2023-09-30T11:18:55;102468.22;;;18.66;70.28
82474;BME280;72350;53.232;6.556;2023-09-30T11:21:25;102467.50;;;18.58;70.45
82474;BME280;72350;53.232;6.556;2023-09-30T11:23:52;102456.41;;;18.49;70.83
82474;BME280;72350;53.232;6.556;2023-09-30T11:26:29;102459.13;;;18.43;71.50
82474;BME280;72350;53.232;6.556;2023-09-30T11:29:05;102450.97;;;18.26;70.05
82474;BME280;72350;53.232;6.556;2023-09-30T11:31:33;102445.09;;;18.06;68.73
82474;BME280;72350;53.232;6.556;2023-09-30T11:34:02;102455.84;;;18.09;70.32
82474;BME280;72350;53.232;6.556;2023-09-30T11:36:34;102448.16;;;18.11;70.48
82474;BME280;72350;53.232;6.556;2023-09-30T11:39:02;102446.06;;;18.14;70.76
82474;BME280;72350;53.232;6.556;2023-09-30T11:41:33;102448.63;;;18.15;70.81
82474;BME280;72350;53.232;6.556;2023-09-30T11:44:03;102448.16;;;18.11;69.66
82474;BME280;72350;53.232;6.556;2023-09-30T11:46:50;102452.88;;;18.11;69.83
82474;BME280;72350;53.232;6.556;2023-09-30T11:49:28;102452.19;;;18.09;69.76
82474;BME280;72350;53.232;6.556;2023-09-30T11:51:59;102454.78;;;18.10;69.90
82474;BME280;72350;53.232;6.556;2023-09-30T11:54:31;102458.34;;;18.04;70.72
82474;BME280;72350;53.232;6.556;2023-09-30T11:57:00;102458.91;;;18.00;71.26
82474;BME280;72350;53.232;6.556;2023-09-30T11:59:28;102456.34;;;17.98;72.07
82474;BME280;72350;53.232;6.556;2023-09-30T12:01:56;102452.00;;;17.96;72.45
82474;BME280;72350;53.232;6.556;2023-09-30T12:04:41;102451.16;;;17.95;71.90
82474;BME280;72350;53.232;6.556;2023-09-30T12:07:11;102454.88;;;18.02;72.32
82474;BME280;72350;53.232;6.556;2023-09-30T12:09:39;102462.28;;;18.10;72.40
82474;BME280;72350;53.232;6.556;2023-09-30T12:12:08;102462.50;;;18.08;73.32
82474;BME280;72350;53.232;6.556;2023-09-30T12:14:38;102466.03;;;18.02;72.53
82474;BME280;72350;53.232;6.556;2023-09-30T12:17:06;102465.47;;;18.07;73.05
82474;BME280;72350;53.232;6.556;2023-09-30T12:19:38;102453.81;;;18.18;72.77
82474;BME280;72350;53.232;6.556;2023-09-30T12:22:08;102452.13;;;18.32;72.29
82474;BME280;72350;53.232;6.556;2023-09-30T12:24:38;102451.09;;;18.54;71.66
82474;BME280;72350;53.232;6.556;2023-09-30T12:27:07;102457.75;;;18.53;70.36
82474;BME280;72350;53.232;6.556;2023-09-30T12:29:35;102463.13;;;18.70;70.69
82474;BME280;72350;53.232;6.556;2023-09-30T12:32:05;102453.09;;;18.90;70.42
82474;BME280;72350;53.232;6.556;2023-09-30T12:34:33;102460.75;;;19.03;68.47
82474;BME280;72350;53.232;6.556;2023-09-30T12:37:02;102463.38;;;19.05;68.79
82474;BME280;72350;53.232;6.556;2023-09-30T12:39:30;102463.28;;;18.98;68.91
82474;BME280;72350;53.232;6.556;2023-09-30T12:42:01;102456.00;;;18.82;69.40
82474;BME280;72350;53.232;6.556;2023-09-30T12:44:35;102452.44;;;18.73;69.35
82474;BME280;72350;53.232;6.556;2023-09-30T12:47:03;102453.81;;;18.63;68.21
82474;BME280;72350;53.232;6.556;2023-09-30T12:49:31;102449.50;;;18.60;69.06
82474;BME280;72350;53.232;6.556;2023-09-30T12:51:59;102442.56;;;18.56;68.53
82474;BME280;72350;53.232;6.556;2023-09-30T12:54:28;102436.28;;;18.54;69.05
82474;BME280;72350;53.232;6.556;2023-09-30T12:56:55;102429.69;;;18.40;68.60
82474;BME280;72350;53.232;6.556;2023-09-30T12:59:25;102429.88;;;18.39;68.85
82474;BME280;72350;53.232;6.556;2023-09-30T13:01:53;102438.63;;;18.36;68.37
82474;BME280;72350;53.232;6.556;2023-09-30T13:04:21;102440.94;;;18.32;67.89